Jadwin, Missouri
Current Conditions -  °F | °C
As of 12:58 AM on Sunday 23 Nov 2014 (Local Time) from KTBN Reporting Station
Broken Clouds Broken Clouds  
Wind Chill: 51°   Ceiling: 20000
Heat Index: 51°   Visibility: 10mi
Dew Point: 50°   Wind: 9mph
Humidity: 97%   Direction: 140°SE
Pressure: 29.77"   Gusts: NA
Location:  37.49°N, 91.57°W
Report Text: KTBN 230658Z AUTO 14008KT 10SM FEW080 BKN200 10/10 A2977 RMK AO2 SLP083 T01030099
Loading
Personal Weather Stations






























Interactive Weather Map New forecast layout! Learn more

10-Day Weather Forecast

Advertisements
Track Severe Weather on mobile